createdAt,value
2023-02-07T00:09:58.313Z,9.90
2023-02-07T00:29:58.409Z,10.40
2023-02-07T00:39:58.415Z,10.00
2023-02-07T00:59:58.444Z,9.90
2023-02-07T01:09:58.464Z,10.10
2023-02-07T01:14:58.702Z,10.10
2023-02-07T01:19:59.054Z,9.40
2023-02-07T01:24:58.539Z,9.40
2023-02-07T01:34:58.599Z,8.90
2023-02-07T01:45:04.180Z,9.20
2023-02-07T01:49:58.915Z,8.50
2023-02-07T01:55:03.464Z,8.50
2023-02-07T02:00:00.564Z,8.60
2023-02-07T02:20:09.201Z,9.00
2023-02-07T02:40:08.601Z,9.00
2023-02-07T02:49:58.910Z,8.60
2023-02-07T02:54:58.710Z,8.60
2023-02-07T03:00:07.946Z,8.80
2023-02-07T03:15:08.702Z,8.30
2023-02-07T03:20:09.605Z,8.40
2023-02-07T03:25:02.036Z,8.40
2023-02-07T03:30:02.799Z,8.60
2023-02-07T03:39:58.845Z,8.20
2023-02-07T03:45:00.793Z,8.20
2023-02-07T03:49:58.848Z,8.80
2023-02-07T03:59:58.943Z,8.30
2023-02-07T04:29:58.970Z,9.40
2023-02-07T04:54:58.989Z,8.30
2023-02-07T04:59:59.064Z,8.30
2023-02-07T05:19:59.946Z,8.80
2023-02-07T05:24:59.092Z,8.80
2023-02-07T05:34:59.743Z,8.40
2023-02-07T05:39:59.526Z,8.30
2023-02-07T06:04:59.180Z,9.40
2023-02-07T06:09:59.258Z,10.90
2023-02-07T06:14:59.455Z,10.90
2023-02-07T06:19:59.228Z,10.60
2023-02-07T06:29:59.237Z,11.60
2023-02-07T06:34:59.335Z,11.60
2023-02-07T06:44:59.299Z,11.20
2023-02-07T06:49:59.307Z,11.40
2023-02-07T06:54:59.347Z,11.50
2023-02-07T06:59:59.309Z,11.50
2023-02-07T07:04:59.378Z,12.90
2023-02-07T07:09:59.371Z,12.90
2023-02-07T07:14:59.440Z,14.20
2023-02-07T07:19:59.353Z,14.20
2023-02-07T07:49:59.441Z,16.10
2023-02-07T08:09:59.482Z,19.30
2023-02-07T08:14:59.540Z,20.10
2023-02-07T08:24:59.538Z,22.00
2023-02-07T08:29:59.592Z,22.00
2023-02-07T08:34:59.761Z,21.10
2023-02-07T08:39:59.853Z,21.10
2023-02-07T08:44:59.738Z,23.00
2023-02-07T08:49:59.681Z,23.00
2023-02-07T08:54:59.816Z,23.50
2023-02-07T09:00:00.260Z,23.50
2023-02-07T09:09:59.709Z,23.40
2023-02-07T09:14:59.821Z,23.30
2023-02-07T09:24:59.731Z,24.00
2023-02-07T09:29:59.703Z,24.00
2023-02-07T09:34:59.746Z,22.10
2023-02-07T09:39:59.739Z,22.10
2023-02-07T09:50:02.545Z,23.20
2023-02-07T09:55:03.679Z,23.70
2023-02-07T10:00:12.119Z,23.70
2023-02-07T10:05:13.880Z,24.50
2023-02-07T10:09:59.873Z,24.50
2023-02-07T10:25:05.236Z,23.00
2023-02-07T10:30:15.080Z,23.00
2023-02-07T10:35:06.531Z,24.20
2023-02-07T10:40:05.738Z,24.20
2023-02-07T10:44:59.916Z,19.10
2023-02-07T10:50:05.857Z,19.10
2023-02-07T10:55:03.948Z,17.70
2023-02-07T11:00:19.812Z,17.70
2023-02-07T11:05:01.758Z,13.90
2023-02-07T11:10:15.354Z,13.90
2023-02-07T11:15:04.506Z,11.90
2023-02-07T11:20:16.270Z,11.90
2023-02-07T11:25:04.473Z,12.00
2023-02-07T11:30:07.045Z,12.00
2023-02-07T11:35:08.133Z,12.10
2023-02-07T11:40:20.201Z,12.10
2023-02-07T11:45:04.173Z,12.40
2023-02-07T11:50:03.702Z,12.40
2023-02-07T11:55:05.118Z,11.80
2023-02-07T12:00:20.072Z,11.80
2023-02-07T12:05:14.629Z,12.00
2023-02-07T12:10:04.502Z,12.00
2023-02-07T12:15:12.867Z,8.10
2023-02-07T12:20:08.589Z,8.10
2023-02-07T12:25:11.122Z,7.80
2023-02-07T12:30:14.690Z,7.80
2023-02-07T12:35:10.302Z,8.60
2023-02-07T12:40:13.021Z,8.60
2023-02-07T12:45:02.722Z,7.90
2023-02-07T12:50:07.317Z,7.90
2023-02-07T12:55:09.080Z,6.30
2023-02-07T13:00:05.182Z,6.30
2023-02-07T13:05:19.689Z,4.90
2023-02-07T13:10:17.764Z,4.90
2023-02-07T13:15:16.907Z,6.70
2023-02-07T13:20:11.280Z,6.70
2023-02-07T13:25:03.810Z,6.70
2023-02-07T13:30:00.789Z,11.10
2023-02-07T13:35:04.925Z,11.10
2023-02-07T13:40:18.376Z,10.80
2023-02-07T13:45:20.285Z,10.00
2023-02-07T13:50:18.437Z,10.00
2023-02-07T13:55:10.317Z,10.00
2023-02-07T14:00:06.812Z,9.80
2023-02-07T14:05:08.472Z,9.80
2023-02-07T14:10:01.559Z,7.50
2023-02-07T14:15:20.356Z,8.50
2023-02-07T14:25:04.839Z,8.50
2023-02-07T14:30:11.487Z,7.90
2023-02-07T14:35:13.784Z,8.20
2023-02-07T14:40:20.559Z,8.20
2023-02-07T14:45:00.733Z,8.20
2023-02-07T14:50:06.000Z,7.80
2023-02-07T14:55:03.204Z,7.80
2023-02-07T15:00:11.527Z,7.00
2023-02-07T15:05:17.911Z,7.30
2023-02-07T15:10:01.286Z,7.30
2023-02-07T15:15:04.670Z,7.30
2023-02-07T15:20:00.704Z,6.60
2023-02-07T15:30:03.273Z,6.60
2023-02-07T15:35:12.933Z,6.00
2023-02-07T15:40:00.767Z,6.00
2023-02-07T15:45:00.696Z,6.00
2023-02-07T15:50:08.118Z,6.60
2023-02-07T16:05:19.054Z,6.90
2023-02-07T16:20:00.854Z,6.30
2023-02-07T16:40:00.848Z,7.40
2023-02-07T16:45:00.917Z,7.40
2023-02-07T16:55:00.921Z,7.90
2023-02-07T17:00:01.340Z,8.30
2023-02-07T17:05:02.352Z,8.30
2023-02-07T17:10:01.011Z,9.50
2023-02-07T17:15:01.374Z,9.50
2023-02-07T17:20:01.131Z,10.20
2023-02-07T17:25:03.026Z,10.20
2023-02-07T17:35:00.968Z,22.70
2023-02-07T17:40:01.001Z,27.40
2023-02-07T17:45:01.013Z,27.40
2023-02-07T17:50:02.032Z,11.40
2023-02-07T17:55:01.112Z,11.40
2023-02-07T18:00:01.302Z,12.70
2023-02-07T18:05:01.119Z,12.70
2023-02-07T18:10:01.117Z,14.90
2023-02-07T18:15:01.788Z,14.90
2023-02-07T18:25:01.143Z,12.00
2023-02-07T18:30:02.195Z,10.60
2023-02-07T18:35:01.071Z,10.60
2023-02-07T18:40:01.381Z,11.00
2023-02-07T18:45:02.211Z,11.00
2023-02-07T18:50:01.205Z,15.90
2023-02-07T19:00:02.374Z,15.00
2023-02-07T19:10:01.803Z,20.10
2023-02-07T19:20:01.212Z,25.00
2023-02-07T19:25:01.790Z,19.80
2023-02-07T19:30:01.413Z,19.80
2023-02-07T19:40:01.480Z,21.30
2023-02-07T19:50:01.435Z,21.20
2023-02-07T19:55:01.318Z,19.30
2023-02-07T20:00:01.426Z,19.30
2023-02-07T20:05:01.348Z,22.90
2023-02-07T20:10:02.595Z,22.90
2023-02-07T20:15:01.359Z,21.10
2023-02-07T20:20:01.591Z,21.10
2023-02-07T20:30:01.419Z,21.50
2023-02-07T20:45:01.891Z,23.80
2023-02-07T20:50:01.467Z,23.80
2023-02-07T20:55:01.471Z,20.40
2023-02-07T21:00:02.404Z,20.40
2023-02-07T21:05:01.494Z,26.60
2023-02-07T21:10:01.666Z,26.60
2023-02-07T21:15:01.574Z,26.60
2023-02-07T21:20:02.727Z,26.60
2023-02-07T21:35:01.582Z,26.20
2023-02-07T21:40:01.712Z,26.20
2023-02-07T21:45:01.665Z,27.60
2023-02-07T21:55:02.154Z,23.20
2023-02-07T22:10:01.812Z,23.30
2023-02-07T22:15:01.699Z,23.80
2023-02-07T22:20:01.705Z,23.80
2023-02-07T22:25:01.714Z,23.50
2023-02-07T22:45:01.898Z,21.20
2023-02-07T23:05:02.842Z,21.60
2023-02-07T23:15:01.940Z,23.20
2023-02-07T23:35:01.948Z,22.80
2023-02-07T23:55:02.214Z,22.00
